WetterOnline ( http://www.wetteronline.de )

Wetter aktuell Heiligenstadt

Aktuelles Wetter: Leinefelde (356m)

6-stündlich | Neueste Meldungen
Ortszeit Temperatur Wetter
Sa, 22.09. 2:00 10.0° C wolkenlos
Fr, 21.09. 20:00 11.8° C bedeckt
Fr, 21.09. 14:00 23.9° C bewölkt
Fr, 21.09. 8:00 17.1° C leicht bewölkt
Fr, 21.09. 2:00 16.8° C wolkenlos
Do, 20.09. 20:00 21.7° C leicht bewölkt
Do, 20.09. 14:00 25.6° C wolkenlos
Do, 20.09. 8:00 14.1° C leicht bewölkt
Ortszeit Temperatur Wetter
Sa, 22.09. 5:00 8.7° C wolkig
Sa, 22.09. 4:50 8.7° C wolkig
Sa, 22.09. 4:40 9.0° C leichter Regen
Sa, 22.09. 4:30 9.5° C leichter Regen
Sa, 22.09. 4:20 9.5° C leichter Regen
Sa, 22.09. 4:10 9.7° C bewölkt
Sa, 22.09. 4:00 10.3° C Sprühregen
Sa, 22.09. 3:30 10.1° C leicht bewölkt
Sa, 22.09. 3:00 10.1° C wolkig
Sa, 22.09. 2:30 10.2° C leicht bewölkt
Sa, 22.09. 2:00 10.0° C wolkenlos
Ortszeit Relative Feuchte Sichtweite
Sa, 22.09. 2:00 69% 70 km
Fr, 21.09. 20:00 82% 35 km
Fr, 21.09. 14:00 40% 35 km
Fr, 21.09. 8:00 65% 35 km
Fr, 21.09. 2:00 66% 40 km
Do, 20.09. 20:00 42% 50 km
Do, 20.09. 14:00 42% 26 km
Do, 20.09. 8:00 84% 20 km
Ortszeit Relative Feuchte Sichtweite
Sa, 22.09. 5:00 83% 45 km
Sa, 22.09. 4:50 83% -
Sa, 22.09. 4:40 82% -
Sa, 22.09. 4:30 79% 7 km
Sa, 22.09. 4:20 79% -
Sa, 22.09. 4:10 76% -
Sa, 22.09. 4:00 71% 6 km
Sa, 22.09. 3:30 69% 60 km
Sa, 22.09. 3:00 69% 55 km
Sa, 22.09. 2:30 68% 55 km
Sa, 22.09. 2:00 69% 70 km
Ortszeit Niederschlagsmenge Niederschlagsart
Sa, 22.09. 2:00 0.0 l/m2 in 6 Std. -
Fr, 21.09. 20:00 8 l/m2 in 12 Std. Regen
Fr, 21.09. 14:00 0.0 l/m2 in 6 Std. -
Fr, 21.09. 8:00 0.0 l/m2 in 12 Std. -
Fr, 21.09. 2:00 0.0 l/m2 in 6 Std. -
Do, 20.09. 20:00 0.0 l/m2 in 12 Std. -
Do, 20.09. 14:00 0.0 l/m2 in 6 Std. -
Do, 20.09. 8:00 0.0 l/m2 in 12 Std. -
Ortszeit Niederschlagsmenge Niederschlagsart
Sa, 22.09. 5:00 0.2 l/m2 in 1 Std. Regen
Sa, 22.09. 4:50 keine Meldung -
Sa, 22.09. 4:40 keine Meldung -
Sa, 22.09. 4:30 0.2 l/m2 in 1 Std. -
Sa, 22.09. 4:20 keine Meldung -
Sa, 22.09. 4:10 keine Meldung -
Sa, 22.09. 4:00 0.1 l/m2 in 1 Std. Regen
Sa, 22.09. 3:30 0.0 l/m2 in 1 Std. -
Sa, 22.09. 3:00 0.0 l/m2 in 1 Std. -
Sa, 22.09. 2:30 0.0 l/m2 in 1 Std. -
Sa, 22.09. 2:00 0.0 l/m2 in 1 Std. -
Ortszeit Stärke Spitze Richtung
km/h Bft. km/h Grad Sektor
Sa, 22.09. 2:00 18 3 36 230° SW
Fr, 21.09. 20:00 14 3 68 250° W
Fr, 21.09. 14:00 32 5 65 230° SW
Fr, 21.09. 8:00 7 2 18 170° S
Fr, 21.09. 2:00 4 1 14 40° NO
Do, 20.09. 20:00 7 2 40 220° SW
Do, 20.09. 14:00 14 3 36 220° SW
Do, 20.09. 8:00 4 1 29 30° NO
Ortszeit Stärke Spitze Richtung
km/h Bft. km/h Grad Sektor
Sa, 22.09. 5:00 11 2 29 230° SW
Sa, 22.09. 4:50 11 2 - 230° SW
Sa, 22.09. 4:40 14 3 - 240° SW
Sa, 22.09. 4:30 13 3 30 260° W
Sa, 22.09. 4:20 13 3 - 260° W
Sa, 22.09. 4:10 14 3 - 270° W
Sa, 22.09. 4:00 18 3 40 250° W
Sa, 22.09. 3:30 18 3 36 240° SW
Sa, 22.09. 3:00 17 3 37 230° SW
Sa, 22.09. 2:30 20 4 37 240° SW
Sa, 22.09. 2:00 18 3 36 230° SW
Ortszeit Untergrenze Bedeckung Gattung
total tief tief mittel hoch
Sa, 22.09. 2:00 - 0/8 0/8 - - -
Fr, 21.09. 20:00 5100 m 8/8 8/8 - - -
Fr, 21.09. 14:00 3900 m 7/8 7/8 - - -
Fr, 21.09. 8:00 7800 m 5/8 0/8 - - -
Fr, 21.09. 2:00 - 0/8 0/8 - - -
Do, 20.09. 20:00 8100 m 3/8 0/8 - - -
Do, 20.09. 14:00 - 0/8 0/8 - - -
Do, 20.09. 8:00 9000 m 6/8 0/8 - - -
Ortszeit Bedeckungsgrad in Achtel und Wolkenuntergrenze
Sa, 22.09. 5:00 2(990m) 4(1470m) 5(1800m)
Sa, 22.09. 4:50 2(990m) 4(1470m) 5(1800m)
Sa, 22.09. 4:40 3(840m) 7(1500m) 7(1800m)
Sa, 22.09. 4:30 5(930m) 6(1140m) 7(1440m)
Sa, 22.09. 4:20 5(930m) 6(1140m) 7(1440m)
Sa, 22.09. 4:10 7(990m)
Sa, 22.09. 4:00 7(1020m) 7(1260m) 8(1470m)
Sa, 22.09. 3:30 1(1170m) 3(1500m)
Sa, 22.09. 3:00 4(1200m) 5(1500m)
Sa, 22.09. 2:30 3(1500m)
Sa, 22.09. 2:00 keine Wolken
Ortszeit Luftdruck NN (hPa) Tendenz (hPa in 3 Std.)
Sa, 22.09. 2:00 1016 + 1,3
Fr, 21.09. 20:00 1011 + 1,9
Fr, 21.09. 14:00 1004 - 1,5
Fr, 21.09. 8:00 1008 - 2,1
Fr, 21.09. 2:00 1012 - 1,5
Do, 20.09. 20:00 1014 - 0,8
Do, 20.09. 14:00 1016 - 1,5
Do, 20.09. 8:00 1019 0,0
Ortszeit Luftdruck NN (hPa) Tendenz (hPa in 3 Std.)
Sa, 22.09. 5:00 1018 + 1,5
Sa, 22.09. 4:50 1018 keine Meldung
Sa, 22.09. 4:40 1018 keine Meldung
Sa, 22.09. 4:30 1018 + 1,5
Sa, 22.09. 4:20 1018 keine Meldung
Sa, 22.09. 4:10 1018 keine Meldung
Sa, 22.09. 4:00 1018 + 1,7
Sa, 22.09. 3:30 1017 + 1,0
Sa, 22.09. 3:00 1017 + 1,1
Sa, 22.09. 2:30 1016 + 1,2
Sa, 22.09. 2:00 1016 + 1,3
Ortszeit Schneehöhe (cm)
Sa, 22.09. 2:00 -
Fr, 21.09. 20:00 -
Fr, 21.09. 14:00 -
Fr, 21.09. 8:00 -
Fr, 21.09. 2:00 -
Do, 20.09. 20:00 -
Do, 20.09. 14:00 -
Do, 20.09. 8:00 -
Ortszeit Schneehöhe (cm)
Sa, 22.09. 5:00 -
Sa, 22.09. 4:50 -
Sa, 22.09. 4:40 -
Sa, 22.09. 4:30 -
Sa, 22.09. 4:20 -
Sa, 22.09. 4:10 -
Sa, 22.09. 4:00 -
Sa, 22.09. 3:30 -
Sa, 22.09. 3:00 -
Sa, 22.09. 2:30 -
Sa, 22.09. 2:00 -
Link zu dieser Seite / Seite empfehlen

Das Wetter in ...